Time;durP1;ratioP1;P1;durP2;ratioP2;P2;SDS_P1;SDS_P2;PMS_P1;PMS_P2;Temp;Humidity;BMP_temperature;BMP_pressure;BME280_temperature;BME280_humidity;BME280_pressure;Samples;Min_cycle;Max_cycle;Signal;HPM_P1;HPM_P2
2022/08/11 00:00:04;;;;;;;2.22;2.13;;;25.00;99.90;;;25.29;62.84;102195.22;5054528;28;20037;-61
2022/08/11 00:02:36;;;;;;;1.70;1.70;;;25.00;99.90;;;25.26;63.02;102189.94;5054810;28;20479;-61
2022/08/11 00:05:10;;;;;;;2.00;1.90;;;24.90;99.90;;;25.24;62.98;102199.09;5054341;28;20045;-61
2022/08/11 00:07:46;;;;;;;1.75;1.75;;;24.90;99.90;;;25.10;63.42;102183.44;5054349;28;20445;-61
2022/08/11 00:10:18;;;;;;;2.50;2.40;;;24.80;99.90;;;25.20;63.14;102192.94;5054590;28;20048;-61
2022/08/11 00:12:54;;;;;;;2.35;2.25;;;24.80;99.90;;;25.14;63.55;102193.22;5053199;28;20045;-60
2022/08/11 00:15:23;;;;;;;2.00;1.90;;;24.80;99.90;;;25.05;63.40;102197.19;5054289;28;20045;-61
2022/08/11 00:17:57;;;;;;;2.10;2.00;;;24.80;99.90;;;25.17;63.50;102193.06;5054147;28;20379;-61
2022/08/11 00:20:35;;;;;;;2.10;2.00;;;24.80;99.90;;;25.02;63.59;102202.75;5054116;28;20045;-61
2022/08/11 00:23:09;;;;;;;2.10;2.00;;;24.80;99.90;;;25.15;63.59;102197.66;5054048;28;20045;-61
2022/08/11 00:25:43;;;;;;;2.03;1.92;;;24.80;99.90;;;25.09;63.68;102199.78;5053952;28;20090;-61
2022/08/11 00:28:30;;;;;;;1.90;1.80;;;24.80;99.90;;;25.02;63.68;102196.44;5053991;28;20053;-61
2022/08/11 00:31:03;;;;;;;1.75;1.75;;;24.70;99.90;;;25.08;63.81;102195.28;5053890;28;20056;-61
2022/08/11 00:33:39;;;;;;;2.00;1.90;;;24.70;99.90;;;24.97;63.84;102177.66;5054026;28;20053;-61
2022/08/11 00:36:15;;;;;;;1.70;1.70;;;24.70;99.90;;;24.97;64.09;102193.91;5053835;28;20072;-61
2022/08/11 00:38:49;;;;;;;2.08;1.98;;;24.60;99.90;;;25.01;64.06;102197.38;5053848;28;20497;-61
2022/08/11 00:41:33;;;;;;;1.88;1.83;;;24.60;99.90;;;24.86;64.32;102190.81;5052625;28;20068;-61
2022/08/11 00:44:36;;;;;;;2.03;1.92;;;24.60;99.90;;;24.71;64.54;102174.28;5053219;28;20049;-61
2022/08/11 00:47:24;;;;;;;1.90;1.85;;;24.50;99.90;;;24.31;64.41;102095.72;5045932;28;20226;-61
2022/08/11 00:50:04;;;;;;;1.83;1.80;;;24.50;99.90;;;24.84;64.63;102195.41;5053844;28;20045;-61
2022/08/11 00:52:59;;;;;;;2.25;2.15;;;24.50;99.90;;;24.78;64.76;102192.06;5053953;28;20142;-60
2022/08/11 00:56:34;;;;;;;2.40;2.30;;;24.40;99.90;;;24.71;64.67;102198.66;5049096;28;20095;-61
2022/08/11 00:59:32;;;;;;;6.32;5.90;;;24.40;99.90;;;24.54;64.74;102175.00;5011727;28;20050;-61
2022/08/11 01:02:41;;;;;;;2.40;2.30;;;24.40;99.90;;;24.63;64.89;102203.50;5011570;28;20500;-61
2022/08/11 01:05:38;;;;;;;2.30;2.20;;;24.30;99.90;;;24.66;64.60;102198.84;5053402;28;20045;-61
2022/08/11 01:08:43;;;;;;;2.00;1.90;;;24.30;99.90;;;24.57;64.68;102196.50;5053309;28;20072;-61
2022/08/11 01:11:46;;;;;;;2.00;1.90;;;24.20;99.90;;;24.57;64.42;102192.91;5053532;28;20376;-61
2022/08/11 01:14:59;;;;;;;1.90;1.80;;;24.20;99.90;;;24.48;64.24;102177.97;5053156;28;20548;-61
2022/08/11 01:18:26;;;;;;;2.17;2.08;;;24.20;99.90;;;24.47;64.36;102186.13;5053379;28;20055;-61
2022/08/11 01:21:43;;;;;;;1.73;1.73;;;24.10;99.90;;;24.50;64.25;102181.50;5053370;28;20542;-61
2022/08/11 01:25:16;;;;;;;2.15;2.05;;;24.10;99.90;;;24.40;63.87;102190.91;5052991;28;20044;-61
2022/08/11 01:28:50;;;;;;;2.10;2.00;;;24.10;99.90;;;24.32;63.74;102178.63;5053260;28;20098;-61
2022/08/11 01:32:01;;;;;;;2.15;2.05;;;24.00;99.90;;;24.34;63.93;102185.75;4983575;28;20090;-60
2022/08/11 01:35:24;;;;;;;2.40;2.30;;;24.00;99.90;;;24.28;63.40;102175.16;5053180;28;20095;-60
2022/08/11 01:38:38;;;;;;;2.28;2.17;;;23.90;99.90;;;24.19;63.16;102178.25;5052809;28;20053;-61
2022/08/11 01:44:36;;;;;;;2.25;2.15;;;23.90;99.90;;;24.13;63.24;102176.69;5051630;28;20041;-61
2022/08/11 01:45:09;;;;;;;2.00;1.90;;;23.80;99.90;;;24.14;63.03;102177.53;5052828;28;20076;-61
2022/08/11 01:47:51;;;;;;;2.08;1.98;;;23.80;99.90;;;24.14;63.37;102182.94;5010851;28;20042;-60
2022/08/11 01:50:37;;;;;;;1.70;1.70;;;23.80;99.90;;;24.05;63.22;102180.63;5048144;28;20176;-61
2022/08/11 01:53:18;;;;;;;2.25;2.15;;;23.80;99.90;;;23.99;63.37;102186.22;5053094;28;20548;-61
2022/08/11 01:56:01;;;;;;;2.58;2.47;;;23.70;99.90;;;23.92;63.22;102172.09;5052742;28;20045;-60
2022/08/11 01:58:43;;;;;;;2.22;2.13;;;23.60;99.90;;;23.87;63.53;102175.88;5052752;28;20091;-61
2022/08/11 02:01:36;;;;;;;2.20;2.10;;;23.50;99.90;;;23.84;63.74;102176.00;5056418;28;20045;-60
2022/08/11 02:04:19;;;;;;;2.42;2.33;;;23.50;99.90;;;23.83;63.62;102172.41;5055753;28;20047;-61
2022/08/11 02:07:01;;;;;;;2.05;1.95;;;23.50;99.90;;;23.83;63.60;102167.00;5056710;28;20563;-60
2022/08/11 02:09:54;;;;;;;2.55;2.45;;;23.50;99.90;;;23.86;63.52;102171.44;5056874;28;20040;-61
2022/08/11 02:12:45;;;;;;;2.28;2.17;;;23.50;99.90;;;23.83;63.07;102167.00;5049789;28;20658;-61
2022/08/11 02:15:27;;;;;;;2.22;2.13;;;23.50;99.90;;;23.75;63.08;102152.06;5056460;28;20045;-61
2022/08/11 02:18:07;;;;;;;2.60;2.50;;;23.50;99.90;;;23.85;62.75;102166.94;5055488;28;20548;-61
2022/08/11 02:23:54;;;;;;;2.10;2.00;;;23.50;99.90;;;23.85;62.40;102170.53;5056961;28;20045;-61
2022/08/11 02:26:42;;;;;;;2.30;2.20;;;23.50;99.90;;;23.80;62.77;102163.56;5056230;28;20045;-60
2022/08/11 02:35:41;;;;;;;2.42;2.33;;;23.40;99.90;;;23.75;62.73;102157.44;4927753;24;20103;-63
2022/08/11 02:38:18;;;;;;;2.10;2.00;;;23.40;99.90;;;23.77;62.80;102166.38;4826659;29;20046;-62
2022/08/11 02:42:21;;;;;;;3.10;2.95;;;23.40;99.90;;;23.72;62.79;102155.75;4826821;29;20042;-69
2022/08/11 02:44:17;;;;;;;2.20;2.10;;;23.40;99.90;;;23.75;62.79;102158.31;4826927;29;20054;-69
2022/08/11 02:46:57;;;;;;;2.30;2.20;;;23.40;99.90;;;23.73;62.65;102149.38;4827164;29;20042;-69
2022/08/11 02:49:52;;;;;;;2.30;2.20;;;23.40;99.90;;;23.73;62.65;102154.78;4826703;29;20111;-69
2022/08/11 02:52:45;;;;;;;2.25;2.15;;;23.40;99.90;;;23.69;62.45;102155.84;4826969;29;20100;-68
2022/08/11 02:55:31;;;;;;;2.10;2.00;;;23.40;99.90;;;23.61;62.52;102155.28;4826592;29;20453;-69
2022/08/11 02:58:34;;;;;;;2.28;2.17;;;23.30;99.90;;;23.62;62.63;102150.72;4826765;29;20133;-69
2022/08/11 03:01:13;;;;;;;2.58;2.47;;;23.30;99.90;;;23.58;62.44;102147.25;4826549;29;20102;-69
2022/08/11 03:03:53;;;;;;;2.42;2.30;;;23.30;99.90;;;23.53;62.26;102145.69;4826738;29;20047;-69
2022/08/11 03:06:32;;;;;;;9.48;3.08;;;23.20;99.90;;;23.45;62.33;102154.06;4827057;29;20050;-69
2022/08/11 03:09:08;;;;;;;2.63;2.53;;;23.10;99.90;;;23.44;62.53;102149.59;4825461;29;20531;-69
2022/08/11 03:17:49;;;;;;;2.22;2.13;;;23.10;99.90;;;23.34;63.14;102148.19;4826461;29;20184;-69
2022/08/11 03:20:35;;;;;;;2.67;2.57;;;23.00;99.90;;;23.34;63.02;102134.69;4826260;29;20449;-69
2022/08/11 03:23:17;;;;;;;2.38;2.28;;;23.00;99.90;;;23.42;63.17;102142.50;4826402;29;20058;-69
2022/08/11 03:25:55;;;;;;;2.00;1.90;;;23.10;99.90;;;23.39;62.76;102148.00;4826674;29;20141;-69
2022/08/11 03:28:34;;;;;;;2.05;1.95;;;23.10;99.90;;;23.35;63.03;102135.56;4826549;29;20055;-68
2022/08/11 03:31:23;;;;;;;2.65;2.55;;;23.00;99.90;;;23.28;63.06;102135.78;4826106;29;20043;-69
2022/08/11 03:34:03;;;;;;;2.85;2.75;;;23.00;99.90;;;23.22;63.09;102135.09;4825804;29;20111;-68
2022/08/11 03:37:50;;;;;;;2.42;2.33;;;22.90;99.90;;;23.12;63.14;102137.25;4825067;29;20050;-69
2022/08/11 03:44:13;;;;;;;2.42;2.33;;;22.80;99.90;;;23.13;63.29;102130.91;4826091;29;20132;-69
2022/08/11 03:47:09;;;;;;;2.42;2.33;;;22.80;99.90;;;23.16;63.19;102135.31;4824832;29;20055;-69
2022/08/11 03:49:56;;;;;;;2.60;2.50;;;22.90;99.90;;;23.18;63.17;102133.44;4825788;29;20121;-69
2022/08/11 03:52:42;;;;;;;2.53;2.42;;;22.80;99.90;;;23.04;63.23;102128.53;4825733;29;20074;-69
2022/08/11 03:55:23;;;;;;;2.30;2.20;;;22.70;99.90;;;23.06;63.48;102131.19;4825965;29;20130;-68
2022/08/11 03:58:32;;;;;;;2.00;1.90;;;22.70;99.90;;;23.05;63.27;102145.63;4826172;29;20110;-69
2022/08/11 04:02:02;;;;;;;2.47;2.38;;;22.70;99.90;;;22.87;63.40;102133.66;4825558;29;20061;-69
2022/08/11 04:05:26;;;;;;;2.33;2.22;;;22.70;99.90;;;22.89;64.10;102141.69;4817285;29;20064;-69
2022/08/11 04:08:29;;;;;;;3.75;3.55;;;22.60;99.90;;;22.95;63.86;102149.59;4825454;29;20089;-68
2022/08/11 04:11:37;;;;;;;2.55;2.45;;;22.60;99.90;;;22.90;63.85;102133.53;4824461;29;20083;-69
2022/08/11 04:17:59;;;;;;;3.05;2.95;;;22.60;99.90;;;22.87;63.80;102132.78;4825289;29;20050;-69
2022/08/11 04:21:20;;;;;;;2.80;2.70;;;22.50;99.90;;;22.75;63.69;102139.47;4825305;29;20458;-69
2022/08/11 04:24:25;;;;;;;2.70;2.60;;;22.50;99.90;;;22.83;63.81;102136.50;4824786;29;20454;-69
2022/08/11 04:27:35;;;;;;;2.38;2.28;;;22.50;99.90;;;22.78;64.02;102131.28;4825253;29;20408;-69
2022/08/11 04:30:13;;;;;;;2.67;2.58;;;22.50;99.90;;;22.82;64.13;102140.16;4825231;29;20080;-69
2022/08/11 04:33:23;;;;;;;2.95;2.85;;;22.50;99.90;;;22.76;64.16;102130.47;4825105;29;20078;-70
2022/08/11 04:36:10;;;;;;;2.72;2.63;;;22.50;99.90;;;22.73;64.11;102135.94;4825159;29;20084;-69
2022/08/11 04:39:12;;;;;;;2.53;2.42;;;22.40;99.90;;;22.74;64.15;102136.84;4825641;29;20085;-69
2022/08/11 04:45:40;;;;;;;2.55;2.45;;;22.40;99.90;;;22.81;63.71;102143.78;4824006;29;20497;-69
2022/08/11 05:07:47;;;;;;;2.20;2.10;;;22.60;99.90;;;23.00;63.38;102145.78;4824560;29;20046;-69
2022/08/11 05:10:43;;;;;;;2.38;2.28;;;22.60;99.90;;;22.92;63.25;102125.38;4824808;29;20065;-69
2022/08/11 05:36:16;;;;;;;2.58;2.47;;;23.40;99.90;;;23.81;61.53;102163.47;4787915;29;20112;-69
2022/08/11 05:58:40;;;;;;;2.40;2.30;;;24.20;99.90;;;24.67;58.09;102165.41;4787905;29;20154;-70
2022/08/11 06:01:12;;;;;;;2.17;2.08;;;24.30;99.90;;;24.79;58.12;102159.53;4787722;29;20048;-69
2022/08/11 06:06:32;;;;;;;2.30;2.20;;;24.60;99.90;;;25.09;56.90;102154.59;4787861;29;20055;-69
2022/08/11 06:09:01;;;;;;;2.33;2.23;;;24.70;99.90;;;25.31;56.78;102154.50;4787953;29;20048;-69
2022/08/11 06:11:31;;;;;;;1.83;1.77;;;25.00;99.90;;;25.49;56.07;102154.59;4787721;29;20050;-69
2022/08/11 06:14:15;;;;;;;2.28;2.17;;;25.10;99.90;;;25.64;55.59;102156.63;4787687;29;20056;-69
2022/08/11 06:16:47;;;;;;;1.60;1.60;;;25.20;99.90;;;25.69;54.97;102150.97;4788302;29;20055;-69
2022/08/11 06:19:16;;;;;;;2.08;1.98;;;25.30;99.90;;;25.87;54.37;102161.84;4787572;29;20063;-69
2022/08/11 06:21:46;;;;;;;1.70;1.70;;;25.50;99.90;;;25.93;53.90;102152.53;4787660;29;20035;-70
2022/08/11 06:24:15;;;;;;;1.85;1.85;;;25.60;99.90;;;25.54;53.64;102089.34;4787716;29;20055;-69
2022/08/11 06:26:50;;;;;;;2.08;1.98;;;25.60;99.90;;;26.02;53.17;102159.31;4787838;29;20053;-69
2022/08/11 06:29:50;;;;;;;1.95;1.90;;;25.70;99.90;;;25.93;53.05;102157.94;4786282;30;20069;-68
2022/08/11 06:32:27;;;;;;;2.28;2.17;;;25.60;99.90;;;25.89;53.11;102159.03;4787632;29;20146;-68
2022/08/11 06:35:19;;;;;;;2.13;2.03;;;25.60;99.90;;;25.84;52.61;102151.13;4812619;29;20058;-69
2022/08/11 06:38:05;;;;;;;2.38;2.28;;;25.50;99.90;;;25.67;53.05;102156.47;4823910;29;20110;-68
2022/08/11 06:40:43;;;;;;;2.15;2.05;;;25.40;99.90;;;25.62;53.37;102157.63;4824130;29;20038;-69
2022/08/11 06:43:46;;;;;;;2.13;2.03;;;25.30;99.90;;;25.48;53.60;102155.56;4823900;29;20081;-67
2022/08/11 06:46:37;;;;;;;2.42;2.30;;;25.10;99.90;;;25.53;53.48;102163.47;4825368;29;20055;-74
2022/08/11 06:51:10;;;;;;;5.20;4.43;;;25.20;99.90;;;25.69;53.89;102161.81;4826646;29;20047;-68
2022/08/11 06:51:58;;;;;;;2.38;2.28;;;25.20;99.90;;;25.55;53.74;102158.88;4826579;29;20531;-68
2022/08/11 06:54:30;;;;;;;2.83;2.72;;;25.20;99.90;;;25.63;53.45;102162.97;4825648;29;20492;-69
2022/08/11 07:03:08;;;;;;;3.70;3.40;;;24.60;99.90;;;24.16;57.33;102164.84;4788128;30;20051;-66
2022/08/11 07:05:45;;;;;;;2.30;2.20;;;24.00;99.90;;;24.27;58.27;102167.13;4788357;30;20063;-66
2022/08/11 07:17:48;;;;;;;2.58;2.47;;;24.90;99.90;;;25.44;54.86;102166.59;4825494;29;20050;-64
2022/08/11 07:28:57;;;;;;;2.55;2.45;;;25.70;99.90;;;25.93;53.63;102166.97;4826234;29;20466;-69
2022/08/11 07:31:36;;;;;;;2.15;2.05;;;25.70;99.90;;;26.04;52.63;102163.75;4825891;29;20046;-67
2022/08/11 07:34:17;;;;;;;2.10;2.00;;;25.80;99.90;;;26.27;53.53;102171.69;4825824;29;20069;-67
2022/08/11 07:36:52;;;;;;;2.50;2.30;;;25.90;99.90;;;26.13;52.54;102165.19;4824875;29;20397;-68
2022/08/11 07:39:23;;;;;;;1.80;1.80;;;26.00;99.90;;;26.34;53.40;102170.44;4824879;29;20058;-66
2022/08/11 07:41:55;;;;;;;2.10;2.00;;;26.00;99.90;;;26.48;51.67;102158.91;4825720;29;20504;-68
2022/08/11 07:44:27;;;;;;;2.10;2.00;;;26.20;99.90;;;26.70;51.93;102174.06;4826028;29;20054;-69
2022/08/11 07:52:39;;;;;;;2.42;2.33;;;26.70;99.90;;;27.03;51.12;102178.72;4826012;29;20050;-66
2022/08/11 07:55:12;;;;;;;;;;;26.70;99.90;;;26.98;50.54;102178.09;4826020;29;20061;-66
2022/08/11 08:17:56;;;;;;;1.55;1.55;;;27.80;99.90;;;28.20;46.25;102183.16;4825220;29;20074;-73
2022/08/11 08:20:48;;;;;;;1.50;1.50;;;27.90;99.90;;;27.46;47.54;102172.81;4825462;29;20462;-72
2022/08/11 08:23:31;;;;;;;3.88;2.65;;;27.30;99.90;;;27.48;46.56;102173.59;4825186;29;20137;-72
2022/08/11 08:26:04;;;;;;;1.80;1.80;;;27.30;99.90;;;27.22;47.36;102184.94;4824098;29;20499;-73
2022/08/11 08:30:45;;;;;;;2.05;1.95;;;27.00;99.90;;;26.87;49.27;102172.34;4824944;29;20081;-72
2022/08/11 08:31:44;;;;;;;2.90;2.63;;;26.50;99.90;;;26.92;48.26;102167.53;4825161;29;20145;-73
2022/08/11 08:34:14;;;;;;;2.10;1.98;;;26.60;99.90;;;26.74;48.82;102172.94;4824823;29;20054;-73
2022/08/11 08:36:43;;;;;;;;;;;26.40;99.90;;;26.32;48.93;102164.22;4825612;29;20481;-73
2022/08/11 08:39:13;;;;;;;2.42;2.33;;;26.00;99.90;;;26.88;48.46;102163.22;4824897;29;19925;-73
2022/08/11 08:41:44;;;;;;;7.53;3.22;;;26.30;99.90;;;26.46;48.73;102166.25;4824956;29;20103;-73
2022/08/11 08:44:17;;;;;;;2.88;2.67;;;26.10;99.90;;;26.05;50.32;102165.50;4824892;29;20078;-73
2022/08/11 08:47:07;;;;;;;2.63;2.53;;;25.70;99.90;;;26.75;49.67;102165.69;4824895;29;20054;-73
2022/08/11 08:49:48;;;;;;;1.80;1.80;;;26.20;99.90;;;27.25;49.14;102172.09;4824694;29;20054;-73
2022/08/11 08:52:23;;;;;;;2.30;2.20;;;26.70;99.90;;;27.38;46.90;102175.06;4825134;29;20177;-72
2022/08/11 08:55:06;;;;;;;2.40;2.30;;;27.00;99.90;;;26.69;48.07;102176.81;4824965;29;20054;-72
2022/08/11 08:57:37;;;;;;;1.95;1.85;;;26.40;99.90;;;26.77;49.39;102171.94;4824721;29;20138;-72
2022/08/11 09:00:08;;;;;;;2.83;2.72;;;26.30;99.90;;;27.37;47.37;102168.72;4824693;29;20054;-72
2022/08/11 09:02:43;;;;;;;3.30;3.10;;;26.80;99.90;;;27.44;46.79;102178.34;4824889;29;20488;-73
2022/08/11 09:05:12;;;;;;;;;;;27.10;99.90;;;26.97;47.81;102165.44;4824987;29;20081;-72
2022/08/11 09:07:41;;;;;;;3.55;3.25;;;26.70;99.90;;;26.78;45.44;102166.41;4838602;29;20282;-72
2022/08/11 09:10:11;;;;;;;2.00;1.90;;;26.40;99.90;;;26.77;49.16;102164.63;4824208;29;20129;-73
2022/08/11 09:12:42;;;;;;;2.50;2.40;;;26.30;99.90;;;26.96;47.50;102169.13;4824765;29;20046;-73
2022/08/11 09:15:12;;;;;;;2.78;2.58;;;26.40;99.90;;;27.16;46.63;102163.53;4824769;29;20050;-73
2022/08/11 09:17:46;;;;;;;2.38;2.28;;;26.60;99.90;;;27.39;46.58;102158.66;4824493;29;20567;-73
2022/08/11 09:20:19;;;;;;;2.10;2.00;;;26.90;99.90;;;27.54;46.76;102160.56;4824482;29;20587;-73
2022/08/11 09:28:48;;;;;;;1.95;1.90;;;27.50;99.90;;;28.30;44.51;102161.75;4824386;29;20074;-73
2022/08/11 09:31:18;;;;;;;1.45;1.45;;;27.80;99.90;;;28.51;43.20;102155.91;4824236;29;20070;-73
2022/08/11 09:33:52;;;;;;;1.40;1.40;;;28.20;99.90;;;28.18;46.16;102157.00;4824252;29;20099;-73
2022/08/11 09:41:54;;;;;;;1.83;1.80;;;28.60;99.90;;;28.96;43.40;102146.88;4824527;29;20050;-73
2022/08/11 09:44:51;;;;;;;1.20;1.20;;;28.60;99.90;;;29.51;43.02;102143.50;4824703;29;20047;-73
2022/08/11 09:47:25;;;;;;;1.40;1.40;;;29.10;99.90;;;29.86;40.78;102145.78;4824420;29;20042;-73
2022/08/11 09:49:58;;;;;;;1.50;1.50;;;29.50;99.90;;;29.91;40.08;102145.47;4822924;29;20095;-73
2022/08/11 09:52:32;;;;;;;1.20;1.20;;;29.70;99.90;;;30.16;39.45;102151.94;4824067;29;20051;-73
2022/08/11 09:55:09;;;;;;;2.15;1.75;;;29.90;99.90;;;29.72;40.13;102140.31;4824317;29;20385;-73
2022/08/11 10:00:36;;;;;;;1.10;1.10;;;29.40;99.90;;;29.94;38.92;102143.44;4824037;29;20062;-73
2022/08/11 10:03:09;;;;;;;2.88;2.50;;;29.60;99.90;;;29.13;38.31;102138.56;4824074;29;20412;-74
2022/08/11 10:08:31;;;;;;;2.40;2.20;;;28.80;99.90;;;28.85;41.41;102134.88;4823973;29;20074;-74
2022/08/11 10:11:00;;;;;;;1.85;1.75;;;28.60;99.90;;;29.00;39.83;102134.81;4824085;29;20050;-73
2022/08/11 10:15:32;;;;;;;8.18;1.83;;;28.60;99.90;;;29.26;40.51;102127.81;4824341;29;20046;-73
2022/08/11 10:16:42;;;;;;;1.80;1.70;;;28.80;99.90;;;29.56;38.92;102122.28;4823993;29;20073;-73
2022/08/11 10:19:11;;;;;;;1.30;1.30;;;29.20;99.90;;;29.33;38.05;102118.25;4824280;29;20047;-73
2022/08/11 10:26:48;;;;;;;1.85;1.75;;;29.00;99.90;;;29.10;39.51;102119.66;4826139;29;20042;-73
2022/08/11 10:27:31;;;;;;;1.48;1.48;;;29.30;99.90;;;30.22;35.24;102120.63;4791730;29;20596;-73
2022/08/11 10:36:08;;;;;;;1.60;1.60;;;29.40;99.90;;;30.02;36.53;102112.91;4826870;29;20046;-73
2022/08/11 10:38:45;;;;;;;1.40;1.40;;;29.60;99.90;;;30.53;36.56;102114.00;4826834;29;20054;-73
2022/08/11 10:44:02;;;;;;;2.17;2.08;;;30.40;99.90;;;30.22;35.67;102116.06;4825797;29;20084;-73
2022/08/11 10:49:16;;;;;;;2.25;2.05;;;29.90;99.90;;;30.42;35.66;102098.38;4815103;29;20153;-73
2022/08/11 11:00:13;;;;;;;1.63;1.52;;;30.40;99.90;;;30.60;34.96;102098.97;4826954;29;20062;-73
2022/08/11 11:02:43;;;;;;;1.20;1.20;;;30.20;99.90;;;31.07;34.72;102110.22;4826550;29;20145;-73
2022/08/11 11:05:33;;;;;;;1.90;1.80;;;30.60;99.90;;;31.13;33.99;102086.06;4826601;29;20142;-73
2022/08/11 11:10:55;;;;;;;4.78;1.83;;;30.50;99.00;;;30.71;33.56;102105.44;4825988;29;20569;-74
2022/08/11 11:19:10;;;;;;;1.23;1.23;;;30.00;99.90;;;30.84;34.04;102095.44;4826114;29;20057;-73
2022/08/11 11:21:40;;;;;;;;;;;30.30;99.90;;;30.90;32.90;102102.34;4826458;29;20058;-73
2022/08/11 11:24:36;;;;;;;2.38;2.17;;;30.50;99.90;;;30.37;32.58;102084.16;4826208;29;19978;-73
2022/08/11 11:27:14;;;;;;;4.85;2.53;;;30.20;97.90;;;30.33;33.20;102085.34;4826342;29;20099;-73
2022/08/11 11:30:03;;;;;;;2.92;1.80;;;29.90;99.90;;;30.71;31.88;102097.25;4826438;29;20133;-73
2022/08/11 11:32:44;;;;;;;1.75;1.65;;;30.30;95.40;;;30.80;32.41;102091.13;4825865;29;20050;-73
2022/08/11 11:35:35;;;;;;;1.33;1.33;;;30.40;97.70;;;31.13;32.04;102094.28;4826258;29;20076;-73
2022/08/11 11:38:09;;;;;;;1.33;1.33;;;30.70;97.70;;;30.58;32.54;102088.16;4825964;29;20047;-73
2022/08/11 11:40:42;;;;;;;1.90;1.80;;;30.20;97.80;;;30.94;31.42;102102.03;4825740;29;20145;-73
2022/08/11 11:43:11;;;;;;;2.35;2.15;;;30.50;92.80;;;30.25;32.35;102091.25;4826062;29;20049;-73
2022/08/11 11:45:42;;;;;;;1.63;1.52;;;30.00;96.80;;;30.43;31.58;102089.19;4825983;29;20047;-73
2022/08/11 11:48:12;;;;;;;1.58;1.48;;;30.00;93.10;;;30.49;33.97;102082.44;4826029;29;20058;-73
2022/08/11 11:50:41;;;;;;;1.10;1.10;;;30.00;99.90;;;31.02;32.54;102091.44;4825717;29;20042;-74
2022/08/11 11:53:12;;;;;;;11.77;1.52;;;30.50;99.90;;;30.76;34.67;102081.41;4825913;29;20453;-73
2022/08/11 11:55:42;;;;;;;2.35;2.10;;;30.40;99.90;;;30.89;33.55;102082.34;4824725;29;20058;-73
2022/08/11 12:01:16;;;;;;;1.77;1.67;;;30.50;99.90;;;31.43;32.70;102084.91;4824888;29;20519;-73
2022/08/11 12:03:49;;;;;;;1.30;1.30;;;31.00;99.90;;;30.87;34.17;102072.50;4826167;29;20111;-73
2022/08/11 12:06:21;;;;;;;1.25;1.25;;;30.50;99.90;;;30.63;34.72;102063.22;4825570;29;20082;-74
2022/08/11 12:08:54;;;;;;;1.40;1.33;;;30.30;99.90;;;31.14;34.31;102067.81;4825728;29;20050;-73
2022/08/11 12:14:11;;;;;;;1.52;1.42;;;31.10;99.90;;;31.16;33.44;102064.97;4825409;29;20051;-73
2022/08/11 12:16:43;;;;;;;2.22;2.13;;;30.90;99.90;;;31.29;32.47;102074.03;4825285;29;20129;-73
2022/08/11 12:19:15;;;;;;;1.10;1.10;;;31.00;98.20;;;30.89;33.46;102065.94;4825541;29;20042;-73
2022/08/11 12:27:21;;;;;;;1.90;1.80;;;31.00;98.10;;;31.41;32.08;102056.78;4825450;29;20087;-73
2022/08/11 12:29:56;;;;;;;2.75;2.28;;;31.10;95.00;;;31.20;32.27;102063.75;4824154;29;20508;-73
2022/08/11 12:32:29;;;;;;;1.42;1.42;;;30.90;94.20;;;30.89;35.09;102046.81;4825095;29;20069;-74
2022/08/11 12:34:57;;;;;;;2.10;1.90;;;30.40;99.90;;;30.90;33.28;102044.94;4825137;29;20088;-74
2022/08/11 12:37:31;;;;;;;2.50;1.77;;;30.40;99.90;;;31.09;32.41;102056.31;4825011;29;20427;-73
2022/08/11 12:46:10;;;;;;;1.40;1.40;;;30.00;90.50;;;30.47;32.56;102035.22;4824909;29;20046;-73
2022/08/11 12:54:58;;;;;;;2.70;2.50;;;30.20;91.10;;;30.15;31.38;102041.00;4824957;29;20050;-74
2022/08/11 13:05:57;;;;;;;1.70;1.60;;;30.00;92.20;;;30.50;32.51;102011.31;4824927;29;20078;-73
2022/08/11 13:08:29;;;;;;;1.25;1.25;;;30.00;96.50;;;30.77;33.15;102014.84;4824668;29;20055;-73
2022/08/11 13:13:51;;;;;;;3.40;2.08;;;30.50;95.20;;;31.09;31.78;102021.66;4824853;29;20459;-74
2022/08/11 13:16:30;;;;;;;1.30;1.30;;;30.70;93.40;;;30.98;30.93;102007.88;4825090;29;20058;-73
2022/08/11 13:19:00;;;;;;;2.92;2.05;;;30.50;86.20;;;30.52;29.77;101948.34;4824787;29;20051;-74
2022/08/11 13:21:29;;;;;;;2.08;1.98;;;30.50;76.90;;;30.64;29.73;102000.25;4824545;29;20065;-74
2022/08/11 13:23:59;;;;;;;1.27;1.27;;;30.30;74.60;;;31.00;30.14;102000.44;4824409;29;20050;-74
2022/08/11 13:26:34;;;;;;;1.20;1.20;;;30.40;79.60;;;31.03;31.16;101999.31;4824390;29;20133;-74
2022/08/11 13:29:21;;;;;;;1.83;1.73;;;30.50;87.50;;;30.63;31.65;102005.84;4824438;29;20046;-74
2022/08/11 13:31:51;;;;;;;1.10;1.10;;;30.30;90.00;;;30.71;31.98;101985.22;4824518;29;20043;-73
2022/08/11 13:34:21;;;;;;;1.65;1.55;;;30.30;93.90;;;30.85;32.39;102001.53;4824320;29;20062;-74
2022/08/11 13:36:53;;;;;;;1.02;1.02;;;30.40;94.30;;;31.24;31.36;101994.19;4824454;29;20054;-73
2022/08/11 13:39:23;;;;;;;1.00;1.00;;;30.70;91.30;;;31.36;31.03;101976.88;4824140;29;20065;-74
2022/08/11 13:41:55;;;;;;;1.38;1.38;;;31.00;89.10;;;31.26;30.12;101989.47;4824372;29;20493;-73
2022/08/11 13:44:27;;;;;;;5.90;2.00;;;30.80;77.50;;;30.95;28.33;101997.13;4823331;29;20058;-74
2022/08/11 13:46:59;;;;;;;1.52;1.52;;;30.60;64.80;;;31.04;27.86;101995.63;4824161;29;20050;-74
2022/08/11 13:49:30;;;;;;;1.60;1.60;;;30.60;63.70;;;30.91;28.64;101990.13;4824171;29;20046;-74
2022/08/11 13:51:59;;;;;;;1.90;1.80;;;30.50;68.40;;;30.87;30.24;101985.91;4824333;29;20077;-73
2022/08/11 13:54:31;;;;;;;2.27;2.07;;;30.40;76.80;;;30.70;29.41;101996.25;4823121;29;20046;-74
2022/08/11 13:57:05;;;;;;;1.77;1.67;;;30.20;71.20;;;30.86;30.62;101991.47;4826751;29;20074;-73
2022/08/11 13:59:42;;;;;;;3.75;2.10;;;30.40;78.60;;;30.76;29.78;101983.00;4827566;29;20102;-74
2022/08/11 14:02:27;;;;;;;2.80;2.25;;;30.40;72.00;;;30.87;29.66;101980.44;4827454;29;20497;-74
2022/08/11 14:05:02;;;;;;;1.58;1.58;;;30.40;72.40;;;31.27;28.73;101983.00;4827662;29;20054;-74
2022/08/11 14:07:35;;;;;;;1.30;1.30;;;30.70;69.30;;;31.29;30.05;101983.75;4827433;29;20082;-73
2022/08/11 14:10:07;;;;;;;1.92;1.83;;;30.80;75.00;;;31.04;30.28;101974.63;4827435;29;20084;-74
2022/08/11 14:15:32;;;;;;;1.75;1.67;;;30.70;68.00;;;30.88;30.59;101984.03;4827323;29;20074;-74
2022/08/11 14:18:06;;;;;;;2.00;1.90;;;30.50;74.80;;;30.70;29.08;101958.00;4827589;29;20051;-74
2022/08/11 14:23:30;;;;;;;2.10;2.00;;;30.30;68.60;;;30.90;29.71;101960.19;4811211;29;20470;-74
2022/08/11 14:28:47;;;;;;;1.42;1.42;;;30.50;91.80;;;31.18;31.13;101937.19;4827313;29;20497;-74
2022/08/11 14:31:17;;;;;;;1.10;1.10;;;30.70;85.00;;;31.65;30.57;101948.25;4826926;29;20047;-74
2022/08/11 14:33:47;;;;;;;2.08;1.98;;;31.10;81.50;;;31.55;29.12;101947.19;4826911;29;20129;-74
2022/08/11 14:36:34;;;;;;;1.70;1.60;;;31.20;71.20;;;31.15;30.54;101954.69;4826954;29;20053;-74
2022/08/11 14:39:07;;;;;;;1.60;1.50;;;30.80;77.80;;;30.99;31.19;101926.75;4825964;29;20144;-74
2022/08/11 14:47:51;;;;;;;1.17;1.17;;;30.70;92.00;;;31.63;31.38;101936.56;4826868;29;20133;-73
2022/08/11 14:50:24;;;;;;;1.20;1.20;;;31.20;89.20;;;31.84;31.49;101930.28;4826942;29;20102;-73
2022/08/11 14:52:58;;;;;;;2.55;1.65;;;31.40;87.70;;;31.77;31.37;101925.41;4826541;29;20141;-74
2022/08/11 14:58:18;;;;;;;1.20;1.20;;;31.50;94.10;;;32.24;32.34;101930.88;4826844;29;20545;-74
2022/08/11 15:00:47;;;;;;;1.65;1.55;;;31.80;92.70;;;31.92;31.91;101918.81;4826755;29;20462;-74
2022/08/11 15:03:16;;;;;;;1.67;1.57;;;31.60;91.10;;;32.04;32.86;101917.84;4826518;29;20046;-74
2022/08/11 15:05:48;;;;;;;1.00;1.00;;;31.70;95.40;;;32.36;32.22;101923.56;4827044;29;20051;-74
2022/08/11 15:14:08;;;;;;;1.70;1.60;;;31.20;96.40;;;31.67;32.51;101903.34;4825319;29;20107;-74
2022/08/11 15:19:32;;;;;;;0.90;0.90;;;31.30;91.90;;;31.70;32.45;101918.66;4826295;29;20071;-74
2022/08/11 15:25:08;;;;;;;1.20;1.20;;;31.20;99.90;;;31.77;33.09;101911.72;4826203;29;20141;-74